createdAt,value
2022-08-07T00:00:25.652Z,67.97
2022-08-07T00:02:53.465Z,68.86
2022-08-07T00:05:23.716Z,71.01
2022-08-07T00:07:58.326Z,70.18
2022-08-07T00:10:29.682Z,73.79
2022-08-07T00:13:17.467Z,71.27
2022-08-07T00:15:52.104Z,70.78
2022-08-07T00:18:24.446Z,71.02
2022-08-07T00:21:07.894Z,75.00
2022-08-07T00:23:53.061Z,76.22
2022-08-07T00:26:59.416Z,76.34
2022-08-07T00:29:06.746Z,77.09
2022-08-07T00:31:37.288Z,75.90
2022-08-07T00:34:08.736Z,76.00
2022-08-07T00:36:38.568Z,73.33
2022-08-07T00:39:12.897Z,74.52
2022-08-07T00:41:53.616Z,72.37
2022-08-07T00:44:28.043Z,72.81
2022-08-07T00:46:55.471Z,72.15
2022-08-07T00:49:24.937Z,74.98
2022-08-07T00:52:11.089Z,74.65
2022-08-07T00:54:40.708Z,76.40
2022-08-07T00:57:09.233Z,77.20
2022-08-07T00:59:39.104Z,76.27
2022-08-07T01:02:14.070Z,77.36
2022-08-07T01:04:54.672Z,77.58
2022-08-07T01:07:25.360Z,77.61
2022-08-07T01:10:05.935Z,76.57
2022-08-07T01:12:36.795Z,75.49
2022-08-07T01:15:07.600Z,75.32
2022-08-07T01:17:40.012Z,75.04
2022-08-07T01:20:10.523Z,76.37
2022-08-07T01:22:54.042Z,77.77
2022-08-07T01:25:54.479Z,77.26
2022-08-07T01:28:19.554Z,76.98
2022-08-07T01:30:52.785Z,77.07
2022-08-07T01:33:22.585Z,75.07
2022-08-07T01:35:53.391Z,76.18
2022-08-07T01:38:25.221Z,74.93
2022-08-07T01:40:58.850Z,74.05
2022-08-07T01:43:38.158Z,75.37
2022-08-07T01:46:08.353Z,75.33
2022-08-07T01:48:46.779Z,76.42
2022-08-07T01:52:03.239Z,74.44
2022-08-07T01:54:32.629Z,74.39
2022-08-07T01:57:08.228Z,74.28
2022-08-07T01:59:43.676Z,72.34
2022-08-07T02:03:18.274Z,72.91
2022-08-07T02:05:47.891Z,73.58
2022-08-07T02:08:26.831Z,73.41
2022-08-07T02:10:58.060Z,73.23
2022-08-07T02:13:57.260Z,72.22
2022-08-07T02:16:19.738Z,73.14
2022-08-07T02:18:51.263Z,75.02
2022-08-07T02:21:19.491Z,73.06
2022-08-07T02:23:46.331Z,73.44
2022-08-07T02:26:32.504Z,74.52
2022-08-07T02:29:02.923Z,73.20
2022-08-07T02:31:32.568Z,71.76
2022-08-07T02:34:11.098Z,73.88
2022-08-07T02:36:45.968Z,74.53
2022-08-07T02:39:43.783Z,73.52
2022-08-07T02:42:10.117Z,74.26
2022-08-07T02:44:45.768Z,72.51
2022-08-07T02:47:19.441Z,71.43
2022-08-07T02:49:56.486Z,73.86
2022-08-07T02:52:39.543Z,73.99
2022-08-07T02:55:27.760Z,75.86
2022-08-07T02:58:04.837Z,75.44
2022-08-07T03:00:34.088Z,74.36
2022-08-07T03:03:06.036Z,73.30
2022-08-07T03:05:37.864Z,75.31
2022-08-07T03:08:10.056Z,73.58
2022-08-07T03:10:46.425Z,73.10
2022-08-07T03:13:19.339Z,74.69
2022-08-07T03:15:56.697Z,73.82
2022-08-07T03:18:34.953Z,74.13
2022-08-07T03:21:08.412Z,73.62
2022-08-07T03:24:20.196Z,73.08
2022-08-07T03:26:33.206Z,75.24
2022-08-07T03:29:10.534Z,74.04
2022-08-07T03:31:46.343Z,73.78
2022-08-07T03:34:18.809Z,74.85
2022-08-07T03:36:51.900Z,75.53
2022-08-07T03:39:56.570Z,76.72
2022-08-07T03:42:07.743Z,76.50
2022-08-07T03:44:37.046Z,75.75
2022-08-07T03:47:13.522Z,75.19
2022-08-07T03:49:52.132Z,75.49
2022-08-07T03:52:26.533Z,77.34
2022-08-07T03:55:06.495Z,77.70
2022-08-07T03:58:34.143Z,78.15
2022-08-07T04:00:33.673Z,79.33
2022-08-07T04:03:04.402Z,78.45
2022-08-07T04:05:40.603Z,77.87
2022-08-07T04:08:16.299Z,77.57
2022-08-07T04:10:54.617Z,76.60
2022-08-07T04:14:09.873Z,77.86
2022-08-07T04:16:31.435Z,77.53
2022-08-07T04:19:03.811Z,77.03
2022-08-07T04:21:33.403Z,78.09
2022-08-07T04:24:07.573Z,77.23
2022-08-07T04:26:40.902Z,76.59
2022-08-07T04:29:11.143Z,78.24
2022-08-07T04:32:09.791Z,78.38
2022-08-07T04:34:33.071Z,79.17
2022-08-07T04:37:01.758Z,78.81
2022-08-07T04:39:35.939Z,79.17
2022-08-07T04:42:04.571Z,79.37
2022-08-07T04:44:33.099Z,79.71
2022-08-07T04:47:09.022Z,79.97
2022-08-07T04:49:57.543Z,79.09
2022-08-07T04:52:50.943Z,78.46
2022-08-07T04:58:12.864Z,78.56
2022-08-07T05:01:50.647Z,77.66
2022-08-07T05:04:24.476Z,77.01
2022-08-07T05:07:09.670Z,78.95
2022-08-07T05:09:59.787Z,78.54
2022-08-07T05:12:46.204Z,77.69
2022-08-07T05:15:25.590Z,77.98
2022-08-07T05:18:08.568Z,77.51
2022-08-07T05:20:51.364Z,77.99
2022-08-07T05:23:29.863Z,77.17
2022-08-07T05:26:13.221Z,76.82
2022-08-07T05:28:50.727Z,77.69
2022-08-07T05:31:24.121Z,77.71
2022-08-07T05:34:05.541Z,76.91
2022-08-07T05:36:39.089Z,76.03
2022-08-07T05:40:17.842Z,76.53
2022-08-07T05:42:04.550Z,76.85
2022-08-07T05:44:37.379Z,76.48
2022-08-07T05:47:19.947Z,77.01
2022-08-07T05:49:51.110Z,77.82
2022-08-07T05:52:29.902Z,78.24
2022-08-07T05:55:07.239Z,77.97
2022-08-07T05:57:42.170Z,77.56
2022-08-07T06:00:16.610Z,77.44
2022-08-07T06:02:53.912Z,76.59
2022-08-07T06:05:25.856Z,76.52
2022-08-07T06:08:14.885Z,76.01
2022-08-07T06:10:46.897Z,77.61
2022-08-07T06:13:18.643Z,78.20
2022-08-07T06:15:49.805Z,77.76
2022-08-07T06:18:22.295Z,77.40
2022-08-07T06:22:14.979Z,77.56
2022-08-07T06:24:38.124Z,78.02
2022-08-07T06:26:30.607Z,76.95
2022-08-07T06:29:01.362Z,75.31
2022-08-07T06:31:38.399Z,74.61
2022-08-07T06:34:14.093Z,75.21
2022-08-07T06:36:42.116Z,75.00
2022-08-07T06:40:16.204Z,73.44
2022-08-07T06:42:05.944Z,74.49
2022-08-07T06:45:11.316Z,73.08
2022-08-07T06:47:57.429Z,74.60
2022-08-07T06:50:30.406Z,76.17
2022-08-07T06:52:59.684Z,75.62
2022-08-07T06:55:53.788Z,75.95
2022-08-07T06:58:21.510Z,74.69
2022-08-07T07:00:58.319Z,75.65
2022-08-07T07:03:39.768Z,74.34
2022-08-07T07:06:12.695Z,76.12
2022-08-07T07:08:39.839Z,75.53
2022-08-07T07:12:07.673Z,74.89
2022-08-07T07:14:02.703Z,74.18
2022-08-07T07:16:34.144Z,75.38
2022-08-07T07:19:55.203Z,74.43
2022-08-07T07:22:12.086Z,73.64
2022-08-07T07:25:02.392Z,73.42
2022-08-07T07:27:35.754Z,71.12
2022-08-07T07:30:28.355Z,72.35
2022-08-07T07:33:01.815Z,71.39
2022-08-07T07:35:33.521Z,71.16
2022-08-07T07:38:02.204Z,70.49
2022-08-07T07:40:30.961Z,70.40
2022-08-07T07:42:58.118Z,71.04
2022-08-07T07:46:37.922Z,71.65
2022-08-07T07:48:36.162Z,70.91
2022-08-07T07:51:08.442Z,70.70
2022-08-07T07:53:51.229Z,70.78
2022-08-07T07:56:29.713Z,70.53
2022-08-07T07:58:59.034Z,71.97
2022-08-07T08:02:03.022Z,72.53
2022-08-07T08:04:14.923Z,70.01
2022-08-07T08:06:50.761Z,70.51
2022-08-07T08:09:22.703Z,69.81
2022-08-07T08:12:02.986Z,69.76
2022-08-07T08:14:34.162Z,69.33
2022-08-07T08:17:55.534Z,69.79
2022-08-07T08:20:17.329Z,68.73
2022-08-07T08:23:00.590Z,68.05
2022-08-07T08:25:49.701Z,66.39
2022-08-07T08:28:24.055Z,66.58
2022-08-07T08:31:05.660Z,65.62
2022-08-07T08:33:37.113Z,64.32
2022-08-07T08:36:06.929Z,65.07
2022-08-07T08:38:41.262Z,63.48
2022-08-07T08:41:19.309Z,62.52
2022-08-07T08:44:03.259Z,63.28
2022-08-07T08:47:09.765Z,63.22
2022-08-07T08:49:46.917Z,64.72
2022-08-07T08:52:40.602Z,64.50
2022-08-07T08:55:55.309Z,63.30
2022-08-07T08:58:54.434Z,66.98
2022-08-07T09:01:43.849Z,67.55
2022-08-07T09:04:28.809Z,68.02
2022-08-07T09:07:03.391Z,59.15
2022-08-07T09:09:44.679Z,57.76
2022-08-07T09:12:31.891Z,56.15
2022-08-07T09:16:20.166Z,56.43
2022-08-07T09:18:30.466Z,55.59
2022-08-07T09:21:06.541Z,55.04
2022-08-07T09:24:32.871Z,55.01
2022-08-07T09:26:56.975Z,53.70
2022-08-07T09:30:04.216Z,51.75
2022-08-07T09:32:40.348Z,51.96
2022-08-07T09:36:04.300Z,50.92
2022-08-07T09:38:50.241Z,50.30
2022-08-07T09:42:02.967Z,51.60
2022-08-07T09:47:25.813Z,51.76
2022-08-07T09:48:29.845Z,51.25
2022-08-07T09:52:16.462Z,51.24
2022-08-07T09:54:41.828Z,51.82
2022-08-07T09:57:50.095Z,52.00
2022-08-07T10:00:24.404Z,51.51
2022-08-07T10:04:05.724Z,51.73
2022-08-07T10:06:27.554Z,51.19
2022-08-07T10:10:00.292Z,51.14
2022-08-07T10:12:52.884Z,50.79
2022-08-07T10:15:37.594Z,51.25
2022-08-07T10:18:19.883Z,52.71
2022-08-07T10:21:19.824Z,52.41
2022-08-07T10:24:28.647Z,52.04
2022-08-07T10:27:10.261Z,50.46
2022-08-07T10:30:06.493Z,49.80
2022-08-07T10:33:12.968Z,49.56
2022-08-07T10:36:05.509Z,50.64
2022-08-07T10:38:59.116Z,50.29
2022-08-07T10:41:51.893Z,50.40
2022-08-07T10:44:33.882Z,50.23
2022-08-07T10:47:11.951Z,50.50
2022-08-07T10:49:50.956Z,49.90
2022-08-07T10:52:48.679Z,49.52
2022-08-07T10:55:37.653Z,48.43
2022-08-07T10:58:36.392Z,49.46
2022-08-07T11:01:51.929Z,49.42
2022-08-07T11:05:10.708Z,47.88
2022-08-07T11:07:59.105Z,48.50
2022-08-07T11:10:57.954Z,48.70
2022-08-07T11:14:43.941Z,49.17
2022-08-07T11:16:39.482Z,48.51
2022-08-07T11:19:34.328Z,47.10
2022-08-07T11:22:18.952Z,49.01
2022-08-07T11:25:09.790Z,48.51
2022-08-07T11:28:02.925Z,47.52
2022-08-07T11:30:52.499Z,48.83
2022-08-07T11:33:48.755Z,49.56
2022-08-07T11:36:25.403Z,47.98
2022-08-07T11:39:58.981Z,46.01
2022-08-07T11:42:21.281Z,45.53
2022-08-07T11:44:59.287Z,45.71
2022-08-07T11:47:56.251Z,45.65
2022-08-07T11:50:31.824Z,45.21
2022-08-07T11:53:16.930Z,45.00
2022-08-07T11:56:15.565Z,44.80
2022-08-07T12:00:08.196Z,46.27
2022-08-07T12:02:31.800Z,44.39
2022-08-07T12:05:28.746Z,43.96
2022-08-07T12:08:31.591Z,43.55
2022-08-07T12:11:20.811Z,42.77
2022-08-07T12:14:16.449Z,44.70
2022-08-07T12:16:54.025Z,43.54
2022-08-07T12:20:03.244Z,41.69
2022-08-07T12:23:09.081Z,41.69
2022-08-07T12:26:05.800Z,41.82
2022-08-07T12:29:07.839Z,41.30
2022-08-07T12:32:02.129Z,42.17
2022-08-07T12:34:33.866Z,41.51
2022-08-07T12:37:01.427Z,41.34
2022-08-07T12:39:44.121Z,41.08
2022-08-07T12:42:22.834Z,42.12
2022-08-07T12:44:55.179Z,41.19
2022-08-07T12:47:27.133Z,39.80
2022-08-07T12:50:04.934Z,39.12
2022-08-07T12:53:18.062Z,38.57
2022-08-07T12:56:10.219Z,37.68
2022-08-07T12:58:40.137Z,36.61
2022-08-07T13:01:32.977Z,37.27
2022-08-07T13:04:34.035Z,36.26
2022-08-07T13:08:12.199Z,36.14
2022-08-07T13:10:44.042Z,34.65
2022-08-07T13:13:47.254Z,35.34
2022-08-07T13:16:38.035Z,33.49
2022-08-07T13:19:22.062Z,34.55
2022-08-07T13:22:19.993Z,33.83
2022-08-07T13:25:00.672Z,32.35
2022-08-07T13:28:13.809Z,31.78
2022-08-07T13:30:43.995Z,32.48
2022-08-07T13:34:30.241Z,28.48
2022-08-07T13:36:30.869Z,28.71
2022-08-07T13:39:04.935Z,27.82
2022-08-07T13:41:47.589Z,28.04
2022-08-07T13:44:26.155Z,29.47
2022-08-07T13:46:57.658Z,27.79
2022-08-07T13:50:33.801Z,29.13
2022-08-07T13:52:32.078Z,28.45
2022-08-07T13:55:07.111Z,28.46
2022-08-07T13:57:38.096Z,27.16
2022-08-07T14:00:26.455Z,29.01
2022-08-07T14:02:56.282Z,29.79
2022-08-07T14:05:24.944Z,28.13
2022-08-07T14:08:05.009Z,30.01
2022-08-07T14:10:41.704Z,26.50
2022-08-07T14:13:12.986Z,26.87
2022-08-07T14:15:44.739Z,27.99
2022-08-07T14:18:57.273Z,26.38
2022-08-07T14:22:04.009Z,24.51
2022-08-07T14:24:27.081Z,25.53
2022-08-07T14:27:01.957Z,24.96
2022-08-07T14:30:06.730Z,25.32
2022-08-07T14:32:46.030Z,27.33
2022-08-07T14:35:44.798Z,26.81
2022-08-07T14:38:26.438Z,27.81
2022-08-07T14:40:59.678Z,29.21
2022-08-07T14:43:57.180Z,29.69
2022-08-07T14:46:31.508Z,28.28
2022-08-07T14:49:55.967Z,28.84
2022-08-07T14:52:03.015Z,29.12
2022-08-07T14:54:35.823Z,29.14
2022-08-07T14:57:15.040Z,27.53
2022-08-07T15:00:05.238Z,27.93
2022-08-07T15:02:34.648Z,28.81
2022-08-07T15:05:03.782Z,28.24
2022-08-07T15:07:51.166Z,27.32
2022-08-07T15:10:26.360Z,27.38
2022-08-07T15:13:22.447Z,26.67
2022-08-07T15:15:58.056Z,28.77
2022-08-07T15:18:45.484Z,28.17
2022-08-07T15:21:59.444Z,27.54
2022-08-07T15:25:14.313Z,27.59
2022-08-07T15:27:23.141Z,27.35
2022-08-07T15:30:09.460Z,28.54
2022-08-07T15:33:01.303Z,27.18
2022-08-07T15:36:01.246Z,26.48
2022-08-07T15:38:31.184Z,25.07
2022-08-07T15:41:23.915Z,24.68
2022-08-07T15:44:00.792Z,25.84
2022-08-07T15:46:31.473Z,25.54
2022-08-07T15:49:15.264Z,27.00
2022-08-07T15:54:34.533Z,28.52
2022-08-07T15:57:03.362Z,26.50
2022-08-07T15:59:39.689Z,26.02
2022-08-07T16:02:22.176Z,25.83
2022-08-07T16:04:55.925Z,25.77
2022-08-07T16:08:32.989Z,22.78
2022-08-07T16:10:21.237Z,21.69
2022-08-07T16:13:17.986Z,21.88
2022-08-07T16:16:43.133Z,19.79
2022-08-07T16:19:59.675Z,20.59
2022-08-07T16:22:36.339Z,20.61
2022-08-07T16:25:54.692Z,19.51
2022-08-07T16:30:07.483Z,18.83
2022-08-07T16:31:57.397Z,24.37
2022-08-07T16:34:45.353Z,26.15
2022-08-07T16:38:05.786Z,26.69
2022-08-07T16:40:32.288Z,26.29
2022-08-07T16:43:18.480Z,26.73
2022-08-07T16:47:04.638Z,28.90
2022-08-07T16:50:20.583Z,26.73
2022-08-07T16:52:50.975Z,28.02
2022-08-07T16:55:16.459Z,28.30
2022-08-07T16:58:03.545Z,32.71
2022-08-07T17:00:40.497Z,33.83
2022-08-07T17:03:17.902Z,35.47
2022-08-07T17:06:31.107Z,38.85
2022-08-07T17:10:06.620Z,38.75
2022-08-07T17:12:35.911Z,36.78
2022-08-07T17:15:20.217Z,38.62
2022-08-07T17:17:47.596Z,37.34
2022-08-07T17:20:37.691Z,39.12
2022-08-07T17:23:23.020Z,38.51
2022-08-07T17:26:22.752Z,38.16
2022-08-07T17:30:15.638Z,38.37
2022-08-07T17:32:35.382Z,42.97
2022-08-07T17:35:49.963Z,43.08
2022-08-07T17:38:33.376Z,43.72
2022-08-07T17:41:12.455Z,45.13
2022-08-07T17:44:01.538Z,44.42
2022-08-07T17:47:16.910Z,46.43
2022-08-07T17:50:14.365Z,45.46
2022-08-07T17:52:52.677Z,44.35
2022-08-07T17:55:55.601Z,42.84
2022-08-07T17:58:33.590Z,43.83
2022-08-07T18:01:20.963Z,45.07
2022-08-07T18:04:38.020Z,45.02
2022-08-07T18:07:20.219Z,45.91
2022-08-07T18:10:06.250Z,47.88
2022-08-07T18:12:53.146Z,46.25
2022-08-07T18:15:32.571Z,47.74
2022-08-07T18:21:01.433Z,48.26
2022-08-07T18:21:38.269Z,48.37
2022-08-07T18:24:34.014Z,52.23
2022-08-07T18:27:38.724Z,52.50
2022-08-07T18:30:31.645Z,53.71
2022-08-07T18:33:15.975Z,56.31
2022-08-07T18:36:32.954Z,58.58
2022-08-07T18:40:07.757Z,58.38
2022-08-07T18:42:16.369Z,61.12
2022-08-07T18:45:43.596Z,61.35
2022-08-07T18:48:05.952Z,60.91
2022-08-07T18:50:46.756Z,57.05
2022-08-07T18:53:14.067Z,60.54
2022-08-07T18:55:57.571Z,58.89
2022-08-07T18:58:51.099Z,59.92
2022-08-07T19:02:32.725Z,56.07
2022-08-07T19:04:54.899Z,59.54
2022-08-07T19:07:56.886Z,59.42
2022-08-07T19:10:49.902Z,55.95
2022-08-07T19:13:24.488Z,57.38
2022-08-07T19:17:00.513Z,60.51
2022-08-07T19:19:04.890Z,59.74
2022-08-07T19:21:53.504Z,57.69
2022-08-07T19:24:38.393Z,59.67
2022-08-07T19:28:30.838Z,59.88
2022-08-07T19:31:02.152Z,60.51
2022-08-07T19:32:54.259Z,60.12
2022-08-07T19:35:28.422Z,60.72
2022-08-07T19:38:04.317Z,58.29
2022-08-07T19:40:49.879Z,60.68
2022-08-07T19:43:49.977Z,59.01
2022-08-07T19:46:12.188Z,61.39
2022-08-07T19:48:53.764Z,60.08
2022-08-07T19:51:50.968Z,57.98
2022-08-07T19:54:33.335Z,62.29
2022-08-07T19:58:01.869Z,62.69
2022-08-07T19:59:54.542Z,62.18
2022-08-07T20:02:32.321Z,64.04
2022-08-07T20:05:00.808Z,63.55
2022-08-07T20:07:47.008Z,63.70
2022-08-07T20:10:35.218Z,63.02
2022-08-07T20:13:33.048Z,64.87
2022-08-07T20:16:02.693Z,64.99
2022-08-07T20:18:33.759Z,65.47
2022-08-07T20:21:21.034Z,63.84
2022-08-07T20:23:54.350Z,66.06
2022-08-07T20:26:29.874Z,67.58
2022-08-07T20:29:10.613Z,66.16
2022-08-07T20:31:48.143Z,66.82
2022-08-07T20:34:34.362Z,68.25
2022-08-07T20:37:06.329Z,66.55
2022-08-07T20:40:02.978Z,66.74
2022-08-07T20:42:24.056Z,65.50
2022-08-07T20:44:52.546Z,66.04
2022-08-07T20:47:25.938Z,64.47
2022-08-07T20:50:13.260Z,66.27
2022-08-07T20:52:51.382Z,63.79
2022-08-07T20:55:23.798Z,66.84
2022-08-07T20:58:03.265Z,66.84
2022-08-07T21:00:46.964Z,65.62
2022-08-07T21:03:23.196Z,64.70
2022-08-07T21:06:25.948Z,64.22
2022-08-07T21:09:14.175Z,65.77
2022-08-07T21:11:50.154Z,65.15
2022-08-07T21:14:32.668Z,64.89
2022-08-07T21:18:01.977Z,68.24
2022-08-07T21:20:05.262Z,68.69
2022-08-07T21:22:44.782Z,68.72
2022-08-07T21:25:17.932Z,68.54
2022-08-07T21:28:10.259Z,68.64
2022-08-07T21:30:57.626Z,66.32
2022-08-07T21:36:40.126Z,63.88
2022-08-07T21:39:48.177Z,65.83
2022-08-07T21:42:42.902Z,66.08
2022-08-07T21:46:08.776Z,65.63
2022-08-07T21:48:27.748Z,65.98
2022-08-07T21:51:05.621Z,66.13
2022-08-07T21:53:37.093Z,67.13
2022-08-07T21:56:37.743Z,66.13
2022-08-07T22:00:02.853Z,65.39
2022-08-07T22:02:52.454Z,62.91
2022-08-07T22:05:45.544Z,62.18
2022-08-07T22:08:10.555Z,62.50
2022-08-07T22:10:38.520Z,61.19
2022-08-07T22:13:13.609Z,60.95
2022-08-07T22:16:44.595Z,60.87
2022-08-07T22:18:38.257Z,62.41
2022-08-07T22:21:16.809Z,61.03
2022-08-07T22:23:53.310Z,62.74
2022-08-07T22:26:24.810Z,63.37
2022-08-07T22:29:13.754Z,62.39
2022-08-07T22:31:59.545Z,61.89
2022-08-07T22:34:35.812Z,62.06
2022-08-07T22:37:16.468Z,63.39
2022-08-07T22:40:04.811Z,63.90
2022-08-07T22:42:34.109Z,64.05
2022-08-07T22:45:10.987Z,63.86
2022-08-07T22:47:57.896Z,64.32
2022-08-07T22:51:20.561Z,63.68
2022-08-07T22:54:07.946Z,62.26
2022-08-07T22:56:57.363Z,62.55
2022-08-07T22:59:41.469Z,63.17
2022-08-07T23:02:22.337Z,63.47
2022-08-07T23:04:57.815Z,62.65
2022-08-07T23:08:07.293Z,64.41
2022-08-07T23:10:56.565Z,63.33
2022-08-07T23:13:48.590Z,66.06
2022-08-07T23:16:55.276Z,66.02
2022-08-07T23:20:21.049Z,63.35
2022-08-07T23:23:13.794Z,61.61
2022-08-07T23:26:11.229Z,61.31
2022-08-07T23:29:02.773Z,62.09
2022-08-07T23:34:21.865Z,62.96
2022-08-07T23:35:19.685Z,64.12
2022-08-07T23:38:08.277Z,64.75
2022-08-07T23:40:56.239Z,65.64
2022-08-07T23:43:51.296Z,65.73
2022-08-07T23:46:43.747Z,66.39
2022-08-07T23:49:51.083Z,67.12
2022-08-07T23:52:58.104Z,66.50
2022-08-07T23:55:53.602Z,66.13
2022-08-07T23:58:36.379Z,65.50
